This is the latest recevied weather packets stored in our database for station/object N1KM-15. If no packets are shown the sender has not sent any weather packets the latest 10 day(s).
| Time | Temp. | Humidity | Pressure | Rain* | Wind** | Luminosity | Snow |
|---|---|---|---|---|---|---|---|
| 1777326300 | 17.78° C | 40% | 1021.6 hPa | 0 mm | - | - | - |
| 1777325400 | 17.78° C | 40% | 1021.5 hPa | 0 mm | - | - | - |
| 1777324500 | 17.78° C | 40% | 1021.3 hPa | 0 mm | - | - | - |
| 1777323600 | 17.78° C | 40% | 1021.3 hPa | 0 mm | - | - | - |
| 1777322700 | 18.33° C | 40% | 1021 hPa | 0 mm | - | - | - |
| 1777321800 | 18.89° C | 39% | 1020.8 hPa | 0 mm | - | - | - |
| 1777320900 | 18.89° C | 39% | 1020.8 hPa | 0 mm | - | - | - |
| 1777320000 | 18.89° C | 38% | 1020.5 hPa | 0 mm | - | - | - |
| 1777319100 | 19.44° C | 37% | 1020.5 hPa | 0 mm | - | - | - |
| 1777318200 | 19.44° C | 40% | 1020.5 hPa | 0 mm | - | - | - |
| 1777317300 | 19.44° C | 40% | 1020.5 hPa | 0 mm | - | - | - |
| 1777316400 | 20° C | 38% | 1020.6 hPa | 0 mm | - | - | - |
| 1777315500 | 19.44° C | 38% | 1020.7 hPa | 0 mm | - | - | - |
| 1777314600 | 19.44° C | 38% | 1020.7 hPa | 0 mm | - | - | - |
| 1777313700 | 18.89° C | 40% | 1020.7 hPa | 0 mm | - | - | - |
| 1777312800 | 18.89° C | 40% | 1020.9 hPa | 0 mm | - | - | - |
| 1777311900 | 19.44° C | 39% | 1020.8 hPa | 0 mm | - | - | - |
| 1777311000 | 19.44° C | 38% | 1020.7 hPa | 0 mm | - | - | - |
| 1777310100 | 18.89° C | 39% | 1020.9 hPa | 0 mm | - | - | - |
| 1777309200 | 18.89° C | 41% | 1020.8 hPa | 0 mm | - | - | - |
| 1777308300 | 19.44° C | 39% | 1020.8 hPa | 0 mm | - | - | - |
| 1777307400 | 19.44° C | 40% | 1020.7 hPa | 0 mm | - | - | - |
| 1777306500 | 18.89° C | 40% | 1020.9 hPa | 0 mm | - | - | - |
| 1777305600 | 18.89° C | 39% | 1020.9 hPa | 0 mm | - | - | - |
| 1777304700 | 18.89° C | 41% | 1020.9 hPa | 0 mm | - | - | - |
* Rain since midnight (hover to see other rain measurements)
** Current wind speed in m/s (hover to see current wind gust speed)